createdAt,value
2019-04-20T00:00:01.661Z,4.4945
2019-04-20T00:00:09.971Z,4.4945
2019-04-20T00:00:16.848Z,4.4652
2019-04-20T00:00:23.176Z,4.4945
2019-04-20T00:00:31.577Z,4.5079
2019-04-20T00:00:37.953Z,4.5079
2019-04-20T00:00:49.140Z,4.4518
2019-04-20T00:00:56.116Z,4.4652
2019-04-20T00:01:01.582Z,4.4652
2019-04-20T00:01:05.506Z,4.4518
2019-04-20T00:01:12.561Z,4.4652
2019-04-20T00:01:25.461Z,4.4385
2019-04-20T00:01:31.981Z,4.4518
2019-04-20T00:01:37.264Z,4.4785
2019-04-20T00:01:42.783Z,4.4945
2019-04-20T00:01:47.408Z,4.4652
2019-04-20T00:01:52.522Z,4.4518
2019-04-20T00:02:04.467Z,4.4518
2019-04-20T00:02:13.753Z,4.4518
2019-04-20T00:02:18.898Z,4.4652
2019-04-20T00:02:25.441Z,4.5079
2019-04-20T00:02:29.625Z,4.5212
2019-04-20T00:02:33.706Z,4.5212
2019-04-20T00:02:38.358Z,4.5933
2019-04-20T00:02:43.992Z,4.5933
2019-04-20T00:02:53.920Z,4.6200
2019-04-20T00:03:01.343Z,4.6361
2019-04-20T00:03:05.701Z,4.6067
2019-04-20T00:03:11.648Z,4.6067
2019-04-20T00:03:15.942Z,4.6200
2019-04-20T00:03:26.042Z,4.6067
2019-04-20T00:03:35.312Z,4.6361
2019-04-20T00:03:43.167Z,4.5933
2019-04-20T00:03:48.549Z,4.6200
2019-04-20T00:03:55.601Z,4.6067
2019-04-20T00:04:01.115Z,4.5640
2019-04-20T00:04:05.435Z,4.5640
2019-04-20T00:04:17.055Z,4.5373
2019-04-20T00:04:23.354Z,4.5079
2019-04-20T00:04:30.974Z,4.4652
2019-04-20T00:04:37.401Z,4.4945
2019-04-20T00:04:41.372Z,4.4945
2019-04-20T00:04:45.456Z,4.4652
2019-04-20T00:04:49.416Z,4.4652
2019-04-20T00:04:53.328Z,4.4652
2019-04-20T00:04:59.043Z,4.4785
2019-04-20T00:05:03.518Z,4.4785
2019-04-20T00:05:07.523Z,4.4945
2019-04-20T00:05:11.368Z,4.4945
2019-04-20T00:05:15.028Z,4.4652
2019-04-20T00:05:19.338Z,4.4652
2019-04-20T00:05:23.245Z,4.4518
2019-04-20T00:05:27.481Z,4.4518
2019-04-20T00:05:31.427Z,4.4518
2019-04-20T00:05:35.426Z,4.4652
2019-04-20T00:05:39.346Z,4.4652
2019-04-20T00:05:45.497Z,4.4385
2019-04-20T00:05:49.385Z,4.4785
2019-04-20T00:05:53.395Z,4.4785
2019-04-20T00:05:57.417Z,4.4518
2019-04-20T00:06:01.931Z,4.4518
2019-04-20T00:06:06.982Z,4.4652
2019-04-20T00:06:11.426Z,4.4652
2019-04-20T00:06:15.491Z,4.4518
2019-04-20T00:06:19.888Z,4.4945
2019-04-20T00:06:23.367Z,4.4945
2019-04-20T00:06:31.719Z,4.4945
2019-04-20T00:06:43.147Z,4.4945
2019-04-20T00:06:48.356Z,4.5212
2019-04-20T00:06:55.782Z,4.4945
2019-04-20T00:07:01.864Z,4.4785
2019-04-20T00:07:08.017Z,4.4945
2019-04-20T00:07:12.531Z,4.4652
2019-04-20T00:07:18.725Z,4.4518
2019-04-20T00:07:29.520Z,4.4785
2019-04-20T00:07:37.200Z,4.4518
2019-04-20T00:07:41.843Z,4.4785
2019-04-20T00:07:46.455Z,4.4518
2019-04-20T00:07:50.184Z,4.4518
2019-04-20T00:07:55.504Z,4.4785
2019-04-20T00:08:03.238Z,4.4518
2019-04-20T00:08:16.690Z,4.4385
2019-04-20T00:08:23.370Z,4.3957
2019-04-20T00:08:31.130Z,4.4091
2019-04-20T00:08:39.482Z,4.4091
2019-04-20T00:08:46.259Z,4.4091
2019-04-20T00:08:58.691Z,4.4091
2019-04-20T00:09:08.774Z,4.4091
2019-04-20T00:09:15.940Z,4.4091
2019-04-20T00:09:24.711Z,4.4224
2019-04-20T00:09:31.734Z,4.4652
2019-04-20T00:09:39.772Z,4.4945
2019-04-20T00:09:52.825Z,4.4652
2019-04-20T00:10:01.415Z,4.4385
2019-04-20T00:10:10.121Z,4.4091
2019-04-20T00:10:17.054Z,4.4385
2019-04-20T00:10:23.086Z,4.4091
2019-04-20T00:10:30.255Z,4.3957
2019-04-20T00:10:47.361Z,4.3957
2019-04-20T00:10:54.802Z,4.3957
2019-04-20T00:11:04.123Z,4.3824
2019-04-20T00:11:11.699Z,4.3664
2019-04-20T00:11:23.421Z,4.3664
2019-04-20T00:11:30.381Z,4.3824
2019-04-20T00:11:45.870Z,4.3824
2019-04-20T00:11:53.471Z,4.3530
2019-04-20T00:12:03.009Z,4.3397
2019-04-20T00:12:07.221Z,4.3236
2019-04-20T00:12:17.211Z,4.3103
2019-04-20T00:12:22.852Z,4.2836
2019-04-20T00:12:37.369Z,4.2676
2019-04-20T00:12:51.032Z,4.2836
2019-04-20T00:12:59.734Z,4.2222
2019-04-20T00:13:05.894Z,4.2382
2019-04-20T00:13:16.637Z,4.2676
2019-04-20T00:13:21.565Z,4.2222
2019-04-20T00:13:32.126Z,4.2222
2019-04-20T00:13:40.696Z,4.2222
2019-04-20T00:13:49.777Z,4.2088
2019-04-20T00:13:54.930Z,4.2542
2019-04-20T00:14:03.838Z,4.2222
2019-04-20T00:14:10.916Z,4.1955
2019-04-20T00:14:19.291Z,4.2542
2019-04-20T00:14:27.859Z,4.2836
2019-04-20T00:14:35.455Z,4.3103
2019-04-20T00:14:42.407Z,4.3236
2019-04-20T00:14:48.058Z,4.2969
2019-04-20T00:14:52.437Z,4.3236
2019-04-20T00:14:56.932Z,4.3530
2019-04-20T00:15:02.873Z,4.3664
2019-04-20T00:15:08.993Z,4.3664
2019-04-20T00:15:13.334Z,4.4091
2019-04-20T00:15:17.561Z,4.4385
2019-04-20T00:15:21.733Z,4.4091
2019-04-20T00:15:26.620Z,4.4518
2019-04-20T00:15:30.622Z,4.4091
2019-04-20T00:15:34.625Z,4.3824
2019-04-20T00:15:38.939Z,4.3824
2019-04-20T00:15:43.015Z,4.3530
2019-04-20T00:15:47.306Z,4.3397
2019-04-20T00:15:51.447Z,4.3397
2019-04-20T00:15:56.025Z,4.3664
2019-04-20T00:16:01.905Z,4.3397
2019-04-20T00:16:06.187Z,4.3397
2019-04-20T00:16:10.573Z,4.3103
2019-04-20T00:16:14.981Z,4.3397
2019-04-20T00:16:19.339Z,4.3236
2019-04-20T00:16:25.063Z,4.3103
2019-04-20T00:16:29.385Z,4.3236
2019-04-20T00:16:33.803Z,4.3236
2019-04-20T00:16:39.823Z,4.2969
2019-04-20T00:16:44.345Z,4.3103
2019-04-20T00:16:48.467Z,4.3103
2019-04-20T00:16:52.675Z,4.3397
2019-04-20T00:16:56.868Z,4.3236
2019-04-20T00:17:01.330Z,4.3530
2019-04-20T00:17:05.418Z,4.3397
2019-04-20T00:17:10.021Z,4.3397
2019-04-20T00:17:15.815Z,4.3397
2019-04-20T00:17:19.963Z,4.3103
2019-04-20T00:17:25.028Z,4.3103
2019-04-20T00:17:30.541Z,4.2969
2019-04-20T00:17:39.333Z,4.2676
2019-04-20T00:17:48.595Z,4.2836
2019-04-20T00:17:57.167Z,4.2676
2019-04-20T00:18:06.238Z,4.2836
2019-04-20T00:18:13.155Z,4.2542
2019-04-20T00:18:16.997Z,4.2542
2019-04-20T00:18:24.873Z,4.2676
2019-04-20T00:18:36.865Z,4.2542
2019-04-20T00:18:45.902Z,4.2382
2019-04-20T00:18:53.173Z,4.2382
2019-04-20T00:19:00.762Z,4.2382
2019-04-20T00:19:07.630Z,4.2382
2019-04-20T00:19:21.747Z,4.2222
2019-04-20T00:19:31.331Z,4.1821
2019-04-20T00:19:37.476Z,4.1394
2019-04-20T00:19:45.390Z,4.1821
2019-04-20T00:19:53.804Z,4.1527
2019-04-20T00:19:59.378Z,4.1527
2019-04-20T00:20:13.375Z,4.1661
2019-04-20T00:20:20.782Z,4.1234
2019-04-20T00:20:30.643Z,4.1100
2019-04-20T00:20:36.908Z,4.1234
2019-04-20T00:20:43.833Z,4.1234
2019-04-20T00:20:51.415Z,4.0967
2019-04-20T00:21:00.268Z,4.0967
2019-04-20T00:21:11.014Z,4.0967
2019-04-20T00:21:16.444Z,4.1100
2019-04-20T00:21:22.553Z,4.1394
2019-04-20T00:21:28.999Z,4.0833
2019-04-20T00:21:34.419Z,4.0673
2019-04-20T00:21:46.926Z,4.0833
2019-04-20T00:21:57.747Z,4.0673
2019-04-20T00:22:01.962Z,4.0967
2019-04-20T00:22:10.168Z,4.0833
2019-04-20T00:22:16.940Z,4.1100
2019-04-20T00:22:24.681Z,4.0967
2019-04-20T00:22:39.308Z,4.0833
2019-04-20T00:22:46.073Z,4.0539
2019-04-20T00:22:51.973Z,4.1100
2019-04-20T00:22:58.182Z,4.1394
2019-04-20T00:23:03.495Z,4.1234
2019-04-20T00:23:14.642Z,4.1234
2019-04-20T00:23:22.868Z,4.1661
2019-04-20T00:23:33.707Z,4.1955
2019-04-20T00:23:39.894Z,4.1527
2019-04-20T00:23:47.738Z,4.1955
2019-04-20T00:23:53.130Z,4.1821
2019-04-20T00:24:01.122Z,4.1821
2019-04-20T00:24:13.604Z,4.1661
2019-04-20T00:24:21.707Z,4.1955
2019-04-20T00:24:30.202Z,4.1661
2019-04-20T00:24:37.215Z,4.1100
2019-04-20T00:24:43.930Z,4.0833
2019-04-20T00:24:50.517Z,4.0539
2019-04-20T00:25:04.278Z,4.0406
2019-04-20T00:25:11.918Z,4.0406
2019-04-20T00:25:19.153Z,4.0673
2019-04-20T00:25:39.535Z,4.1100
2019-04-20T00:25:49.789Z,4.0967
2019-04-20T00:25:53.178Z,4.0833
2019-04-20T00:26:02.870Z,4.0833
2019-04-20T00:26:07.700Z,4.0406
2019-04-20T00:26:19.444Z,4.0406
2019-04-20T00:26:27.348Z,4.0272
2019-04-20T00:26:56.346Z,4.0406
2019-04-20T00:27:04.767Z,4.0272
2019-04-20T00:27:22.049Z,4.0272
2019-04-20T00:27:25.973Z,4.0406
2019-04-20T00:27:32.978Z,4.0539
2019-04-20T00:27:37.179Z,4.0539
2019-04-20T00:27:43.357Z,4.0539
2019-04-20T00:27:50.232Z,4.0673
2019-04-20T00:27:59.551Z,4.0673
2019-04-20T00:28:08.552Z,4.0967
2019-04-20T00:28:16.100Z,4.0967
2019-04-20T00:28:25.012Z,4.0967
2019-04-20T00:28:33.905Z,4.0833
2019-04-20T00:28:45.657Z,4.1100
2019-04-20T00:28:50.763Z,4.1100
2019-04-20T00:29:02.308Z,4.1100
2019-04-20T00:29:16.063Z,4.1100
2019-04-20T00:29:21.288Z,4.1100
2019-04-20T00:29:29.720Z,4.1100
2019-04-20T00:29:40.731Z,4.1394
2019-04-20T00:29:47.935Z,4.2088
2019-04-20T00:29:54.748Z,4.1821
2019-04-20T00:30:04.271Z,4.1234
2019-04-20T00:30:15.552Z,4.1100
2019-04-20T00:30:28.247Z,4.0967
2019-04-20T00:30:32.451Z,4.1100
2019-04-20T00:30:40.100Z,4.0833
2019-04-20T00:30:51.776Z,4.1100
2019-04-20T00:30:58.957Z,4.0967
2019-04-20T00:31:09.788Z,4.0833
2019-04-20T00:31:12.431Z,4.0967
2019-04-20T00:31:23.245Z,4.1394
2019-04-20T00:31:30.751Z,4.1394
2019-04-20T00:31:42.125Z,4.1527
2019-04-20T00:31:51.390Z,4.1661
2019-04-20T00:31:56.685Z,4.2676
2019-04-20T00:32:02.595Z,4.2836
2019-04-20T00:32:12.555Z,4.2836
2019-04-20T00:32:19.915Z,4.3397
2019-04-20T00:32:37.691Z,4.3397
2019-04-20T00:32:45.486Z,4.3397
2019-04-20T00:32:53.304Z,4.3103
2019-04-20T00:33:00.860Z,4.3236
2019-04-20T00:33:07.749Z,4.2836
2019-04-20T00:33:21.602Z,4.2676
2019-04-20T00:33:33.038Z,4.2676
2019-04-20T00:33:38.864Z,4.2088
2019-04-20T00:33:48.398Z,4.2222
2019-04-20T00:33:53.773Z,4.1661
2019-04-20T00:34:02.375Z,4.1527
2019-04-20T00:34:11.564Z,4.1394
2019-04-20T00:34:18.092Z,4.1527
2019-04-20T00:34:24.609Z,4.1234
2019-04-20T00:34:33.172Z,4.1234
2019-04-20T00:34:39.001Z,4.1234
2019-04-20T00:34:47.113Z,4.1234
2019-04-20T00:34:54.014Z,4.1100
2019-04-20T00:34:59.940Z,4.0833
2019-04-20T00:35:06.194Z,4.0967
2019-04-20T00:35:12.324Z,4.0833
2019-04-20T00:35:16.892Z,4.1100
2019-04-20T00:35:21.463Z,4.1394
2019-04-20T00:35:27.110Z,4.1527
2019-04-20T00:35:31.446Z,4.1955
2019-04-20T00:35:35.917Z,4.1661
2019-04-20T00:35:40.391Z,4.1394
2019-04-20T00:35:46.238Z,4.1394
2019-04-20T00:35:50.434Z,4.1661
2019-04-20T00:35:54.865Z,4.1955
2019-04-20T00:35:59.399Z,4.1821
2019-04-20T00:36:05.270Z,4.1661
2019-04-20T00:36:10.091Z,4.1394
2019-04-20T00:36:15.985Z,4.1100
2019-04-20T00:36:22.100Z,4.1100
2019-04-20T00:36:27.280Z,4.0967
2019-04-20T00:36:32.885Z,4.1234
2019-04-20T00:36:37.485Z,4.1234
2019-04-20T00:36:41.571Z,4.1234
2019-04-20T00:36:47.329Z,4.1394
2019-04-20T00:36:51.925Z,4.1661
2019-04-20T00:36:56.370Z,4.1661
2019-04-20T00:37:00.420Z,4.1661
2019-04-20T00:37:05.412Z,4.1661
2019-04-20T00:37:12.831Z,4.1527
2019-04-20T00:37:17.424Z,4.1394
2019-04-20T00:37:21.357Z,4.1394
2019-04-20T00:37:25.474Z,4.1100
2019-04-20T00:37:29.738Z,4.0833
2019-04-20T00:37:35.935Z,4.0833
2019-04-20T00:37:40.567Z,4.0539
2019-04-20T00:37:44.556Z,4.0539
2019-04-20T00:37:48.794Z,4.0539
2019-04-20T00:37:52.887Z,4.0272
2019-04-20T00:37:57.408Z,4.0406
2019-04-20T00:38:01.257Z,4.0539
2019-04-20T00:38:05.644Z,4.0539
2019-04-20T00:38:09.832Z,4.0539
2019-04-20T00:38:14.381Z,4.0673
2019-04-20T00:38:18.069Z,4.0967
2019-04-20T00:38:25.998Z,4.1100
2019-04-20T00:38:36.545Z,4.0967
2019-04-20T00:38:46.276Z,4.0967
2019-04-20T00:38:53.702Z,4.0833
2019-04-20T00:39:02.636Z,4.0967
2019-04-20T00:39:10.897Z,4.0833
2019-04-20T00:39:17.235Z,4.0673
2019-04-20T00:39:23.849Z,4.0967
2019-04-20T00:39:28.309Z,4.0967
2019-04-20T00:39:32.391Z,4.0833
2019-04-20T00:39:36.090Z,4.0967
2019-04-20T00:39:40.593Z,4.0833
2019-04-20T00:39:44.746Z,4.1234
2019-04-20T00:39:50.804Z,4.1234
2019-04-20T00:39:55.968Z,4.0967
2019-04-20T00:40:01.549Z,4.1234
2019-04-20T00:40:05.739Z,4.1394
2019-04-20T00:40:09.867Z,4.1394
2019-04-20T00:40:15.076Z,4.1234
2019-04-20T00:40:19.496Z,4.1234
2019-04-20T00:40:23.705Z,4.1394
2019-04-20T00:40:28.464Z,4.1234
2019-04-20T00:40:32.686Z,4.1100
2019-04-20T00:40:37.297Z,4.1234
2019-04-20T00:40:41.332Z,4.1100
2019-04-20T00:40:48.912Z,4.1100
2019-04-20T00:40:59.771Z,4.0967
2019-04-20T00:41:07.578Z,4.1234
2019-04-20T00:41:15.983Z,4.1100
2019-04-20T00:41:23.005Z,4.1100
2019-04-20T00:41:29.612Z,4.1100
2019-04-20T00:41:40.713Z,4.1100
2019-04-20T00:41:50.959Z,4.1527
2019-04-20T00:41:56.245Z,4.1527
2019-04-20T00:42:04.407Z,4.1821
2019-04-20T00:42:12.850Z,4.2542
2019-04-20T00:42:19.858Z,4.2382
2019-04-20T00:42:34.099Z,4.2542
2019-04-20T00:42:42.224Z,4.2382
2019-04-20T00:42:50.796Z,4.2382
2019-04-20T00:42:57.118Z,4.2222
2019-04-20T00:43:04.578Z,4.1661
2019-04-20T00:43:08.710Z,4.1661
2019-04-20T00:43:19.621Z,4.1661
2019-04-20T00:43:28.287Z,4.1527
2019-04-20T00:43:35.353Z,4.1527
2019-04-20T00:43:42.072Z,4.1394
2019-04-20T00:43:47.162Z,4.1100
2019-04-20T00:43:51.369Z,4.0967
2019-04-20T00:43:58.857Z,4.1100
2019-04-20T00:44:12.234Z,4.1234
2019-04-20T00:44:22.075Z,4.1234
2019-04-20T00:44:28.091Z,4.1100
2019-04-20T00:44:35.887Z,4.1100
2019-04-20T00:44:43.802Z,4.0833
2019-04-20T00:44:56.310Z,4.0967
2019-04-20T00:45:06.778Z,4.0833
2019-04-20T00:45:15.391Z,4.0406
2019-04-20T00:45:23.500Z,4.0272
2019-04-20T00:45:30.582Z,4.0272
2019-04-20T00:45:44.926Z,4.0272
2019-04-20T00:45:51.783Z,4.0112
2019-04-20T00:46:04.848Z,3.9845
2019-04-20T00:46:09.129Z,3.9979
2019-04-20T00:46:22.173Z,3.9685
2019-04-20T00:46:31.249Z,3.9551
2019-04-20T00:46:39.685Z,3.9685
2019-04-20T00:46:51.179Z,3.9685
2019-04-20T00:47:01.869Z,3.9845
2019-04-20T00:47:08.437Z,3.9979
2019-04-20T00:47:15.887Z,3.9685
2019-04-20T00:47:30.475Z,3.9845
2019-04-20T00:47:37.344Z,3.9418
2019-04-20T00:47:41.895Z,3.9551
2019-04-20T00:47:51.250Z,3.9551
2019-04-20T00:47:59.724Z,3.9284
2019-04-20T00:48:06.290Z,3.9124
2019-04-20T00:48:22.535Z,3.9284
2019-04-20T00:48:31.554Z,3.8991
2019-04-20T00:48:37.429Z,3.8857
2019-04-20T00:48:46.353Z,3.8991
2019-04-20T00:48:55.101Z,3.9124
2019-04-20T00:49:08.822Z,3.8857
2019-04-20T00:49:20.726Z,3.8697
2019-04-20T00:49:27.089Z,3.8563
2019-04-20T00:49:34.939Z,3.8563
2019-04-20T00:49:46.123Z,3.8296
2019-04-20T00:49:52.741Z,3.8857
2019-04-20T00:50:01.126Z,3.8430
2019-04-20T00:50:15.765Z,3.8430
2019-04-20T00:50:27.022Z,3.8430
2019-04-20T00:50:36.720Z,3.8430
2019-04-20T00:50:40.608Z,3.8296
2019-04-20T00:50:57.491Z,3.8430
2019-04-20T00:51:14.827Z,3.8136
2019-04-20T00:51:23.936Z,3.8296
2019-04-20T00:51:37.637Z,3.8296
2019-04-20T00:51:39.354Z,3.8296
2019-04-20T00:51:46.638Z,3.8136
2019-04-20T00:51:51.096Z,3.8003
2019-04-20T00:52:17.170Z,3.8296
2019-04-20T00:52:23.737Z,3.8296
2019-04-20T00:52:27.667Z,3.7869
2019-04-20T00:52:35.702Z,3.8003
2019-04-20T00:52:44.755Z,3.8003
2019-04-20T00:52:46.984Z,3.7709
2019-04-20T00:52:54.361Z,3.7709
2019-04-20T00:53:02.187Z,3.7709
2019-04-20T00:53:06.736Z,3.7575
2019-04-20T00:53:17.097Z,3.7575
2019-04-20T00:53:26.165Z,3.7442
2019-04-20T00:53:34.211Z,3.7308
2019-04-20T00:53:39.702Z,3.7148
2019-04-20T00:53:48.389Z,3.7148
2019-04-20T00:53:55.899Z,3.7148
2019-04-20T00:54:02.563Z,3.7148
2019-04-20T00:54:07.355Z,3.7015
2019-04-20T00:54:11.539Z,3.7015
2019-04-20T00:54:14.408Z,3.7015
2019-04-20T00:54:18.089Z,3.7015
2019-04-20T00:54:24.224Z,3.7148
2019-04-20T00:54:28.453Z,3.6881
2019-04-20T00:54:32.547Z,3.7015
2019-04-20T00:54:36.906Z,3.6721
2019-04-20T00:54:41.241Z,3.6881
2019-04-20T00:54:45.511Z,3.6881
2019-04-20T00:54:49.499Z,3.6587
2019-04-20T00:54:53.941Z,3.7015
2019-04-20T00:55:00.004Z,3.6721
2019-04-20T00:55:04.380Z,3.6881
2019-04-20T00:55:08.350Z,3.6881
2019-04-20T00:55:12.793Z,3.6721
2019-04-20T00:55:17.481Z,3.6587
2019-04-20T00:55:21.508Z,3.6881
2019-04-20T00:55:25.254Z,3.6454
2019-04-20T00:55:29.383Z,3.6721
2019-04-20T00:55:33.800Z,3.6721
2019-04-20T00:55:38.568Z,3.6587
2019-04-20T00:55:42.326Z,3.6721
2019-04-20T00:55:46.384Z,3.6587
2019-04-20T00:55:50.800Z,3.6587
2019-04-20T00:55:55.544Z,3.6454
2019-04-20T00:55:59.560Z,3.6587
2019-04-20T00:56:05.412Z,3.6454
2019-04-20T00:56:09.971Z,3.6881
2019-04-20T00:56:14.370Z,3.6721
2019-04-20T00:56:18.672Z,3.6721
2019-04-20T00:56:22.639Z,3.6881
2019-04-20T00:56:26.393Z,3.6587
2019-04-20T00:56:30.934Z,3.7015
2019-04-20T00:56:37.074Z,3.7015
2019-04-20T00:56:41.557Z,3.7015
2019-04-20T00:56:45.470Z,3.7015
2019-04-20T00:56:49.865Z,3.7015
2019-04-20T00:57:06.610Z,3.7308
2019-04-20T00:57:13.280Z,3.7015
2019-04-20T00:57:22.330Z,3.6881
2019-04-20T00:57:34.046Z,3.7015
2019-04-20T00:57:41.568Z,3.6721
2019-04-20T00:57:47.671Z,3.6881
2019-04-20T00:57:56.394Z,3.6721
2019-04-20T00:58:09.378Z,3.7148
2019-04-20T00:58:17.308Z,3.7015
2019-04-20T00:58:24.513Z,3.7308
2019-04-20T00:58:33.580Z,3.7442
2019-04-20T00:58:50.684Z,3.7709
2019-04-20T00:58:52.901Z,3.7709
2019-04-20T00:59:06.509Z,3.7709
2019-04-20T00:59:14.463Z,3.7709
2019-04-20T00:59:24.105Z,3.7575
2019-04-20T00:59:31.613Z,3.8136
2019-04-20T00:59:42.952Z,3.8136
2019-04-20T01:00:03.641Z,3.8003
2019-04-20T01:00:09.395Z,3.7869
2019-04-20T01:00:17.773Z,3.7575
2019-04-20T01:00:22.877Z,3.7709
2019-04-20T01:00:34.174Z,3.7575
2019-04-20T01:00:36.871Z,3.7709
2019-04-20T01:00:58.332Z,3.7442
2019-04-20T01:01:04.097Z,3.7575
2019-04-20T01:01:16.993Z,3.7575
2019-04-20T01:01:22.102Z,3.7575
2019-04-20T01:01:24.898Z,3.7709
2019-04-20T01:01:37.844Z,3.7442
2019-04-20T01:01:48.972Z,3.7575
2019-04-20T01:01:51.947Z,3.7869
2019-04-20T01:02:04.963Z,3.7869
2019-04-20T01:02:10.064Z,3.7709
2019-04-20T01:02:18.037Z,3.7869
2019-04-20T01:02:25.732Z,3.7709
2019-04-20T01:02:29.656Z,3.8003
2019-04-20T01:02:40.669Z,3.8136
2019-04-20T01:02:50.727Z,3.8296
2019-04-20T01:03:04.010Z,3.8296
2019-04-20T01:03:09.854Z,3.8296
2019-04-20T01:03:21.857Z,3.8697
2019-04-20T01:03:32.418Z,3.8563
2019-04-20T01:03:35.955Z,3.8857
2019-04-20T01:03:48.640Z,3.9284
2019-04-20T01:03:58.641Z,3.9284
2019-04-20T01:04:10.616Z,3.9124
2019-04-20T01:04:27.228Z,3.9124
2019-04-20T01:04:38.832Z,3.8857
2019-04-20T01:04:50.875Z,3.8430
2019-04-20T01:04:56.570Z,3.8563
2019-04-20T01:05:04.383Z,3.8136
2019-04-20T01:05:15.189Z,3.8296
2019-04-20T01:05:18.582Z,3.8136
2019-04-20T01:05:23.156Z,3.7869
2019-04-20T01:05:35.433Z,3.8136
2019-04-20T01:05:53.636Z,3.7709
2019-04-20T01:06:00.808Z,3.7709
2019-04-20T01:06:07.909Z,3.7709
2019-04-20T01:06:17.626Z,3.8003
2019-04-20T01:06:24.757Z,3.7869
2019-04-20T01:06:34.115Z,3.8563
2019-04-20T01:06:38.326Z,3.8136
2019-04-20T01:06:49.216Z,3.8003
2019-04-20T01:06:53.990Z,3.7869
2019-04-20T01:07:01.219Z,3.7709
2019-04-20T01:07:09.640Z,3.7442
2019-04-20T01:07:23.291Z,3.7442
2019-04-20T01:07:26.337Z,3.7308
2019-04-20T01:07:35.046Z,3.7575
2019-04-20T01:07:42.000Z,3.7709
2019-04-20T01:07:50.298Z,3.7709
2019-04-20T01:07:58.116Z,3.8136
2019-04-20T01:08:04.629Z,3.8136
2019-04-20T01:08:11.305Z,3.8136
2019-04-20T01:08:15.327Z,3.8296
2019-04-20T01:08:19.531Z,3.8136
2019-04-20T01:08:23.362Z,3.8003
2019-04-20T01:08:27.503Z,3.8003
2019-04-20T01:08:31.808Z,3.7575
2019-04-20T01:08:36.382Z,3.7709
2019-04-20T01:08:42.214Z,3.7442
2019-04-20T01:08:48.472Z,3.7308
2019-04-20T01:08:52.883Z,3.7015
2019-04-20T01:08:57.463Z,3.7015
2019-04-20T01:09:01.868Z,3.7015
2019-04-20T01:09:07.422Z,3.6881
2019-04-20T01:09:11.954Z,3.7148
2019-04-20T01:09:16.495Z,3.7015
2019-04-20T01:09:20.442Z,3.6881
2019-04-20T01:09:24.642Z,3.6881
2019-04-20T01:09:28.804Z,3.6881
2019-04-20T01:09:33.501Z,3.7015
2019-04-20T01:09:39.138Z,3.7015
2019-04-20T01:09:43.434Z,3.6881
2019-04-20T01:09:47.819Z,3.7015
2019-04-20T01:09:52.004Z,3.7015
2019-04-20T01:09:56.479Z,3.7308
2019-04-20T01:10:00.489Z,3.7308
2019-04-20T01:10:04.967Z,3.7148
2019-04-20T01:10:09.509Z,3.7015
2019-04-20T01:10:13.477Z,3.7308
2019-04-20T01:10:17.431Z,3.7148
2019-04-20T01:10:21.619Z,3.7015
2019-04-20T01:10:28.318Z,3.7148
2019-04-20T01:10:38.491Z,3.7015
2019-04-20T01:10:47.199Z,3.6881
2019-04-20T01:10:54.827Z,3.7015
2019-04-20T01:11:02.343Z,3.7015
2019-04-20T01:11:06.327Z,3.6881
2019-04-20T01:11:10.643Z,3.7015
2019-04-20T01:11:16.754Z,3.7015
2019-04-20T01:11:29.997Z,3.7015
2019-04-20T01:11:38.419Z,3.7015
2019-04-20T01:11:45.159Z,3.7015
2019-04-20T01:11:51.659Z,3.6881
2019-04-20T01:11:56.640Z,3.7148
2019-04-20T01:12:05.074Z,3.7015
2019-04-20T01:12:17.287Z,3.6881
2019-04-20T01:12:22.964Z,3.6587
2019-04-20T01:12:31.319Z,3.6881
2019-04-20T01:12:38.728Z,3.6454
2019-04-20T01:12:45.710Z,3.6320
2019-04-20T01:12:52.075Z,3.6454
2019-04-20T01:13:06.828Z,3.6320
2019-04-20T01:13:13.781Z,3.6320
2019-04-20T01:13:20.348Z,3.6454
2019-04-20T01:13:27.185Z,3.6320
2019-04-20T01:13:42.178Z,3.6320
2019-04-20T01:13:48.801Z,3.6320
2019-04-20T01:13:55.366Z,3.6454
2019-04-20T01:14:04.387Z,3.6160
2019-04-20T01:14:12.267Z,3.6160
2019-04-20T01:14:26.079Z,3.6320
2019-04-20T01:14:32.808Z,3.6320
2019-04-20T01:14:44.676Z,3.6160
2019-04-20T01:14:51.428Z,3.6320
2019-04-20T01:14:58.721Z,3.6587
2019-04-20T01:15:06.290Z,3.6454
2019-04-20T01:15:22.420Z,3.6587
2019-04-20T01:15:28.132Z,3.6587
2019-04-20T01:15:38.661Z,3.7015
2019-04-20T01:15:47.367Z,3.7148
2019-04-20T01:15:55.348Z,3.7308
2019-04-20T01:16:03.517Z,3.7442
2019-04-20T01:16:14.655Z,3.7442
2019-04-20T01:16:25.728Z,3.7442
2019-04-20T01:16:33.590Z,3.7709
2019-04-20T01:16:41.776Z,3.8136
2019-04-20T01:16:47.302Z,3.8136
2019-04-20T01:16:56.962Z,3.8003
2019-04-20T01:17:07.179Z,3.7709
2019-04-20T01:17:11.968Z,3.7869
2019-04-20T01:17:16.290Z,3.7442
2019-04-20T01:17:20.394Z,3.7308
2019-04-20T01:17:24.361Z,3.7442
2019-04-20T01:17:28.869Z,3.7575
2019-04-20T01:17:32.329Z,3.7575
2019-04-20T01:17:37.787Z,3.7709
2019-04-20T01:17:45.869Z,3.7869
2019-04-20T01:17:49.465Z,3.7709
2019-04-20T01:17:53.622Z,3.7869
2019-04-20T01:17:57.858Z,3.7709
2019-04-20T01:18:02.368Z,3.7575
2019-04-20T01:18:07.393Z,3.7709
2019-04-20T01:18:14.049Z,3.7709
2019-04-20T01:18:19.360Z,3.7869
2019-04-20T01:18:23.316Z,3.8003
2019-04-20T01:18:27.599Z,3.7709
2019-04-20T01:18:30.391Z,3.7869
2019-04-20T01:18:33.869Z,3.7575
2019-04-20T01:18:36.869Z,3.7575
2019-04-20T01:18:39.546Z,3.7442
2019-04-20T01:18:43.751Z,3.7869
2019-04-20T01:18:51.386Z,3.7442
2019-04-20T01:18:56.949Z,3.7575
2019-04-20T01:19:02.055Z,3.7709
2019-04-20T01:19:06.974Z,3.7709
2019-04-20T01:19:11.409Z,3.8003
2019-04-20T01:19:18.860Z,3.8296
2019-04-20T01:19:23.531Z,3.8003
2019-04-20T01:19:27.348Z,3.7869
2019-04-20T01:19:31.320Z,3.7709
2019-04-20T01:19:35.533Z,3.7575
2019-04-20T01:19:39.569Z,3.7575
2019-04-20T01:19:43.305Z,3.7709
2019-04-20T01:19:48.894Z,3.7442
2019-04-20T01:19:56.486Z,3.7442
2019-04-20T01:20:00.510Z,3.7308
2019-04-20T01:20:05.019Z,3.7442
2019-04-20T01:20:09.359Z,3.7308
2019-04-20T01:20:14.378Z,3.7308
2019-04-20T01:20:18.530Z,3.7148
2019-04-20T01:20:22.601Z,3.7015
2019-04-20T01:20:30.499Z,3.7148
2019-04-20T01:20:34.548Z,3.7148
2019-04-20T01:20:38.906Z,3.6881
2019-04-20T01:20:45.131Z,3.7015
2019-04-20T01:20:49.451Z,3.7308
2019-04-20T01:20:53.629Z,3.7148
2019-04-20T01:21:04.881Z,3.7015
2019-04-20T01:21:13.033Z,3.7015
2019-04-20T01:21:19.865Z,3.7148
2019-04-20T01:21:27.108Z,3.7148
2019-04-20T01:21:35.052Z,3.7308
2019-04-20T01:21:44.914Z,3.7442
2019-04-20T01:21:54.833Z,3.7148
2019-04-20T01:22:03.652Z,3.7015
2019-04-20T01:22:10.728Z,3.7015
2019-04-20T01:22:18.469Z,3.7015
2019-04-20T01:22:27.264Z,3.6881
2019-04-20T01:22:40.306Z,3.6881
2019-04-20T01:22:50.505Z,3.6881
2019-04-20T01:22:59.493Z,3.6881
2019-04-20T01:23:07.462Z,3.6721
2019-04-20T01:23:14.019Z,3.7015
2019-04-20T01:23:21.295Z,3.7015
2019-04-20T01:23:37.563Z,3.7148
2019-04-20T01:23:43.812Z,3.7308
2019-04-20T01:23:51.223Z,3.7869
2019-04-20T01:23:58.616Z,3.8136
2019-04-20T01:24:07.879Z,3.8430
2019-04-20T01:24:20.014Z,3.8697
2019-04-20T01:24:29.165Z,3.8857
2019-04-20T01:24:35.319Z,3.8991
2019-04-20T01:24:43.239Z,3.8857
2019-04-20T01:24:50.352Z,3.8857
2019-04-20T01:24:56.603Z,3.8563
2019-04-20T01:25:12.402Z,3.8991
2019-04-20T01:25:22.061Z,3.9124
2019-04-20T01:25:30.292Z,3.9685
2019-04-20T01:25:35.996Z,3.9685
2019-04-20T01:25:43.643Z,3.9551
2019-04-20T01:25:56.877Z,3.9845
2019-04-20T01:26:04.007Z,3.9845
2019-04-20T01:26:11.523Z,4.0112
2019-04-20T01:26:19.178Z,3.9979
2019-04-20T01:26:24.933Z,4.0272
2019-04-20T01:26:31.274Z,3.9979
2019-04-20T01:26:42.031Z,4.0112
2019-04-20T01:26:50.570Z,4.0539
2019-04-20T01:26:57.961Z,4.0406
2019-04-20T01:27:05.182Z,3.9551
2019-04-20T01:27:29.602Z,3.9124
2019-04-20T01:27:35.009Z,3.8697
2019-04-20T01:27:42.142Z,3.8697
2019-04-20T01:27:50.155Z,3.8430
2019-04-20T01:28:02.261Z,3.8296
2019-04-20T01:28:18.345Z,3.8296
2019-04-20T01:28:24.830Z,3.8003
2019-04-20T01:28:31.039Z,3.8003
2019-04-20T01:28:37.503Z,3.7575
2019-04-20T01:28:46.792Z,3.7442
2019-04-20T01:28:54.256Z,3.7442
2019-04-20T01:29:04.242Z,3.7148
2019-04-20T01:29:15.874Z,3.7148
2019-04-20T01:29:20.184Z,3.7148
2019-04-20T01:29:27.466Z,3.7015
2019-04-20T01:29:36.906Z,3.7308
2019-04-20T01:29:41.778Z,3.7442
2019-04-20T01:29:49.412Z,3.7709
2019-04-20T01:30:09.443Z,3.7709
2019-04-20T01:30:10.772Z,3.7709
2019-04-20T01:30:21.003Z,3.7575
2019-04-20T01:30:25.133Z,3.7442
2019-04-20T01:30:36.229Z,3.7015
2019-04-20T01:30:44.584Z,3.7308
2019-04-20T01:31:00.177Z,3.7148
2019-04-20T01:31:06.737Z,3.7148
2019-04-20T01:31:17.643Z,3.7015